Practice 2 - Red
Course: Road America · 2026-09-05 11:05AM
Weather Conditions
Temp 74°F
(64–74°F range)
Temp type NORMAL
Track DAMP
Precip 0.3 mm (DRIZZLE)
Humidity 85%
Wind 16 km/h
Cloud 74%
OVERALL
BY CLASS
| POS | # | NAME | CLASS | BEST LAP | GAP | INTERVAL | LAPS |
|---|---|---|---|---|---|---|---|
| 1 | 28 | BOB MUELLER | GTA3 | 2:09.005 | - | - | 6 |
| 2 | 014 | CORY FRIEDMAN | GTA3 | 2:10.098 | 1.093 | 1.093 | 8 |
| 3 | 267 | MATTHEW SIEGAL | STG | 2:10.975 | 1.970 | 0.877 | 7 |
| 4 | 24 | EARL TUCKER IV | GTC8 | 2:11.395 | 2.390 | 0.420 | 7 |
| 5 | 57 | JOHN GOETZ | GTA4 | 2:11.963 | 2.958 | 0.568 | 9 |
| 6 | 270 | GRIFFIN FUJII | STG | 2:12.308 | 3.303 | 0.345 | 8 |
| 7 | 91 | RENE ROBICHAUD | GTA4 | 2:12.525 | 3.520 | 0.217 | 8 |
| 8 | 227 | JOEL JOHNSON | STG | 2:12.925 | 3.920 | 0.400 | 8 |
| 9 | 212 | RUSSELL FARHANG | STG | 2:13.193 | 4.188 | 0.268 | 8 |
| 10 | 211 | ERIK BENEDIKT | STG | 2:13.205 | 4.200 | 0.012 | 7 |
| 11 | 17 | MARK CALZARETTA | GTC8 | 2:13.538 | 4.533 | 0.333 | 6 |
| 12 | 262 | JOSEPH G VIOLA | GTC8 | 2:14.230 | 5.225 | 0.692 | 8 |
| 13 | 844 | GIANLUCA PETTITI | GTC8 | 2:14.355 | 5.350 | 0.125 | 8 |
| 14 | 960 | KEVIN ROUSH | GTA2 | 2:14.534 | 5.529 | 0.179 | 8 |
| 15 | 277 | TOM BURKE | STG | 2:14.596 | 5.591 | 0.062 | 8 |
| 16 | 41 | CORY LIBKA | GTC7 | 2:14.611 | 5.606 | 0.015 | 5 |
| 17 | 112 | KEITH JEZEK | GTC8 | 2:14.790 | 5.785 | 0.179 | 8 |
| 18 | 08 | CLIFF CAYER | GTA4 | 2:15.381 | 6.376 | 0.591 | 8 |
| 19 | 233 | DARREN FENZ | STG | 2:15.644 | 6.639 | 0.263 | 8 |
| 20 | 71 | GREGG ESAKOFF | GTA4 | 2:15.717 | 6.712 | 0.073 | 8 |
| 21 | 38 | TOPHER EVERETT | GTC8 | 2:15.807 | 6.802 | 0.090 | 7 |
| 22 | 46 | EARL TUCKER III | GTC8 | 2:15.890 | 6.885 | 0.083 | 8 |
| 23 | 272 | TROY PETERSEN | STG | 2:15.940 | 6.935 | 0.050 | 8 |
| 24 | 59 | KEVIN O'CONNELL | GTA4 | 2:16.222 | 7.217 | 0.282 | 8 |
| 25 | 81 | GEOFF ISRINGHAUSEN | GTA3 | 2:16.779 | 7.774 | 0.557 | 8 |
| 26 | 182 | CONNOR HARE | STC | 2:16.828 | 7.823 | 0.049 | 7 |
| 27 | 77 | MICHAEL WILLIAMS | GTC7 | 2:17.461 | 8.456 | 0.633 | 8 |
| 28 | 7 | STEVE PARKER | GT1 | 2:18.167 | 9.162 | 0.706 | 8 |
| 29 | 924 | JEFF SMITH | GTC6 | 2:18.305 | 9.300 | 0.138 | 7 |
| 30 | 176 | PETER HAABESTAD | STC | 2:18.538 | 9.533 | 0.233 | 7 |
| 31 | 559 | MIKE KRESSER | GTA3 | 2:19.055 | 10.050 | 0.517 | 8 |
| 32 | 159 | SCOOP HEAVEY | GTC8 | 2:19.335 | 10.330 | 0.280 | 7 |
| 33 | 74 | KEITH CLARK | GTC6 | 2:19.918 | 10.913 | 0.583 | 8 |
| 34 | 219 | MARK POLING | STG | 2:20.208 | 11.203 | 0.290 | 8 |
| 35 | 707 | KERRY BROWN | GTC6 | 2:23.141 | 14.136 | 2.933 | 7 |
| 36 | 195 | MICHAEL NANCE | STC | 2:24.058 | 15.053 | 0.917 | 6 |
| 37 | 121 | DOUG LAWSON | STC | 2:24.412 | 15.407 | 0.354 | 3 |
| 38 | 44 | JEAN AUDET | GTC5 | 2:26.678 | 17.673 | 2.266 | 6 |
| 39 | 271 | KEITH ERICKSON | GT1 | 2:51.547 | 42.542 | 24.869 | 3 |
Pole Position